createdAt,value
2022-10-19T00:01:31.513Z,9.54
2022-10-19T00:03:59.960Z,9.61
2022-10-19T00:06:30.338Z,9.62
2022-10-19T00:09:00.144Z,9.68
2022-10-19T00:11:28.359Z,9.66
2022-10-19T00:13:55.778Z,9.61
2022-10-19T00:16:23.541Z,9.61
2022-10-19T00:18:50.247Z,9.54
2022-10-19T00:21:19.010Z,9.54
2022-10-19T00:23:46.437Z,9.51
2022-10-19T00:26:13.820Z,9.39
2022-10-19T00:28:41.048Z,9.40
2022-10-19T00:31:11.011Z,9.37
2022-10-19T00:33:37.863Z,9.30
2022-10-19T00:36:05.706Z,9.28
2022-10-19T00:38:32.322Z,9.16
2022-10-19T00:40:58.832Z,9.13
2022-10-19T00:43:30.174Z,9.11
2022-10-19T00:45:56.665Z,9.14
2022-10-19T00:48:28.033Z,9.17
2022-10-19T00:50:57.281Z,9.15
2022-10-19T00:53:27.095Z,9.07
2022-10-19T00:55:54.294Z,9.05
2022-10-19T00:58:20.856Z,8.98
2022-10-19T01:00:47.746Z,8.98
2022-10-19T01:03:14.362Z,8.92
2022-10-19T01:05:41.369Z,8.92
2022-10-19T01:08:10.179Z,8.96
2022-10-19T01:11:01.356Z,8.95
2022-10-19T01:13:55.430Z,8.92
2022-10-19T01:16:26.831Z,8.85
2022-10-19T01:19:05.905Z,8.89
2022-10-19T01:21:43.570Z,8.97
2022-10-19T01:24:58.151Z,9.01
2022-10-19T01:28:10.019Z,9.02
2022-10-19T01:30:55.930Z,8.98
2022-10-19T01:33:47.379Z,8.94
2022-10-19T01:36:20.657Z,8.92
2022-10-19T01:39:12.151Z,8.91
2022-10-19T01:41:49.352Z,8.92
2022-10-19T01:44:36.853Z,8.96
2022-10-19T01:47:08.990Z,8.90
2022-10-19T01:49:41.274Z,8.86
2022-10-19T01:52:11.553Z,8.83
2022-10-19T01:54:43.030Z,8.74
2022-10-19T01:57:13.098Z,8.66
2022-10-19T01:59:40.035Z,8.62
2022-10-19T02:02:10.266Z,8.56
2022-10-19T02:04:38.243Z,8.62
2022-10-19T02:07:08.245Z,8.67
2022-10-19T02:09:35.492Z,8.65
2022-10-19T02:12:05.836Z,8.70
2022-10-19T02:14:37.711Z,8.72
2022-10-19T02:17:16.962Z,8.73
2022-10-19T02:19:43.730Z,8.78
2022-10-19T02:22:11.596Z,8.77
2022-10-19T02:24:38.118Z,8.80
2022-10-19T02:27:06.584Z,8.87
2022-10-19T02:29:34.432Z,8.94
2022-10-19T02:32:01.664Z,9.00
2022-10-19T02:34:28.381Z,9.11
2022-10-19T02:36:55.336Z,9.11
2022-10-19T02:39:22.493Z,9.19
2022-10-19T02:42:01.753Z,9.15
2022-10-19T02:44:40.108Z,9.22
2022-10-19T02:47:12.047Z,9.20
2022-10-19T02:49:39.350Z,9.18
2022-10-19T02:52:08.485Z,9.16
2022-10-19T02:54:35.310Z,9.14
2022-10-19T02:57:07.693Z,9.15
2022-10-19T02:59:34.137Z,9.17
2022-10-19T03:02:00.603Z,9.25
2022-10-19T03:04:27.071Z,9.26
2022-10-19T03:06:53.505Z,9.35
2022-10-19T03:09:20.061Z,9.34
2022-10-19T03:11:46.604Z,9.37
2022-10-19T03:14:13.027Z,9.40
2022-10-19T03:16:39.462Z,9.40
2022-10-19T03:19:06.571Z,9.41
2022-10-19T03:21:34.133Z,9.40
2022-10-19T03:24:01.119Z,9.39
2022-10-19T03:26:27.666Z,9.40
2022-10-19T03:28:54.335Z,9.44
2022-10-19T03:31:20.903Z,9.42
2022-10-19T03:33:47.441Z,9.50
2022-10-19T03:36:19.493Z,9.50
2022-10-19T03:38:45.993Z,9.46
2022-10-19T03:41:13.374Z,9.50
2022-10-19T03:43:41.213Z,9.51
2022-10-19T03:46:08.639Z,9.43
2022-10-19T03:48:35.848Z,9.43
2022-10-19T03:51:05.871Z,9.39
2022-10-19T03:53:33.228Z,9.44
2022-10-19T03:56:27.201Z,9.53
2022-10-19T03:58:55.223Z,9.57
2022-10-19T04:01:25.235Z,9.56
2022-10-19T04:04:00.712Z,9.54
2022-10-19T04:06:30.187Z,9.53
2022-10-19T04:08:57.016Z,9.54
2022-10-19T04:11:28.947Z,9.51
2022-10-19T04:13:56.826Z,9.47
2022-10-19T04:16:24.820Z,9.42
2022-10-19T04:18:51.595Z,9.43
2022-10-19T04:21:26.167Z,9.38
2022-10-19T04:23:57.631Z,9.35
2022-10-19T04:26:24.259Z,9.40
2022-10-19T04:28:50.809Z,9.37
2022-10-19T04:31:17.362Z,9.28
2022-10-19T04:33:43.934Z,9.23
2022-10-19T04:36:12.379Z,9.20
2022-10-19T04:38:39.216Z,9.22
2022-10-19T04:41:11.574Z,9.19
2022-10-19T04:43:38.692Z,9.15
2022-10-19T04:46:07.163Z,9.11
2022-10-19T04:48:35.151Z,9.07
2022-10-19T04:51:02.302Z,9.05
2022-10-19T04:53:28.953Z,9.09
2022-10-19T04:55:55.435Z,9.05
2022-10-19T04:58:22.218Z,9.04
2022-10-19T05:00:49.587Z,9.02
2022-10-19T05:03:16.966Z,9.06
2022-10-19T05:05:43.448Z,9.07
2022-10-19T05:08:10.911Z,9.07
2022-10-19T05:10:38.001Z,9.05
2022-10-19T05:13:05.384Z,9.04
2022-10-19T05:15:32.010Z,9.07
2022-10-19T05:17:58.490Z,9.00
2022-10-19T05:20:25.084Z,8.96
2022-10-19T05:22:51.869Z,8.93
2022-10-19T05:25:18.411Z,8.87
2022-10-19T05:27:44.953Z,8.86
2022-10-19T05:30:14.289Z,8.82
2022-10-19T05:32:40.828Z,8.77
2022-10-19T05:35:07.665Z,8.81
2022-10-19T05:37:34.430Z,8.82
2022-10-19T05:40:01.261Z,8.87
2022-10-19T05:42:28.086Z,8.86
2022-10-19T05:44:54.598Z,8.88
2022-10-19T05:47:21.031Z,8.89
2022-10-19T05:49:47.868Z,8.86
2022-10-19T05:52:15.188Z,8.86
2022-10-19T05:54:41.730Z,8.83
2022-10-19T05:57:08.293Z,8.87
2022-10-19T05:59:35.914Z,8.95
2022-10-19T06:02:02.467Z,8.98
2022-10-19T06:04:29.228Z,8.96
2022-10-19T06:06:55.690Z,8.98
2022-10-19T06:09:22.268Z,8.97
2022-10-19T06:11:48.788Z,8.94
2022-10-19T06:14:16.527Z,8.95
2022-10-19T06:16:43.373Z,8.97
2022-10-19T06:19:10.110Z,8.96
2022-10-19T06:21:37.871Z,8.98
2022-10-19T06:24:06.644Z,9.02
2022-10-19T06:26:34.926Z,9.08
2022-10-19T06:29:02.653Z,9.04
2022-10-19T06:31:36.591Z,9.05
2022-10-19T06:34:03.946Z,9.13
2022-10-19T06:36:31.687Z,9.21
2022-10-19T06:38:59.797Z,9.21
2022-10-19T06:41:26.805Z,9.24
2022-10-19T06:43:55.152Z,9.24
2022-10-19T06:46:24.402Z,9.31
2022-10-19T06:48:51.607Z,9.29
2022-10-19T06:51:18.130Z,9.27
2022-10-19T06:53:44.585Z,9.26
2022-10-19T06:56:11.052Z,9.31
2022-10-19T06:58:38.908Z,9.30
2022-10-19T07:01:09.587Z,9.33
2022-10-19T07:03:36.823Z,9.37
2022-10-19T07:06:06.551Z,9.39
2022-10-19T07:08:34.556Z,9.43
2022-10-19T07:11:04.301Z,9.49
2022-10-19T07:13:31.324Z,9.52
2022-10-19T07:16:05.474Z,9.66
2022-10-19T07:18:33.298Z,9.67
2022-10-19T07:21:02.316Z,9.70
2022-10-19T07:23:30.583Z,9.74
2022-10-19T07:26:01.758Z,9.79
2022-10-19T07:28:29.893Z,9.85
2022-10-19T07:30:56.895Z,9.94
2022-10-19T07:33:23.795Z,10.04
2022-10-19T07:35:50.337Z,10.09
2022-10-19T07:38:18.202Z,10.16
2022-10-19T07:40:47.337Z,10.21
2022-10-19T07:43:14.149Z,10.29
2022-10-19T07:45:40.606Z,10.41
2022-10-19T07:48:07.226Z,10.45
2022-10-19T07:50:33.679Z,10.54
2022-10-19T07:53:00.169Z,10.58
2022-10-19T07:55:26.631Z,10.61
2022-10-19T07:57:53.092Z,10.62
2022-10-19T08:00:19.659Z,10.65
2022-10-19T08:03:00.188Z,10.71
2022-10-19T08:05:33.885Z,10.77
2022-10-19T08:08:00.380Z,10.84
2022-10-19T08:10:26.947Z,10.90
2022-10-19T08:12:53.501Z,10.97
2022-10-19T08:15:20.066Z,10.99
2022-10-19T08:17:46.614Z,10.99
2022-10-19T08:20:13.098Z,11.09
2022-10-19T08:22:39.900Z,11.13
2022-10-19T08:25:07.612Z,11.22
2022-10-19T08:27:34.026Z,11.26
2022-10-19T08:30:00.492Z,11.22
2022-10-19T08:32:26.954Z,11.26
2022-10-19T08:34:53.406Z,11.26
2022-10-19T08:37:26.316Z,11.36
2022-10-19T08:40:08.414Z,11.39
2022-10-19T08:42:50.214Z,11.43
2022-10-19T08:45:44.961Z,11.51
2022-10-19T08:48:17.247Z,11.55
2022-10-19T08:50:45.402Z,11.58
2022-10-19T08:53:24.073Z,11.50
2022-10-19T08:56:14.948Z,11.51
2022-10-19T08:59:10.592Z,11.45
2022-10-19T09:02:01.823Z,11.53
2022-10-19T09:04:34.027Z,11.60
2022-10-19T09:07:09.972Z,11.65
2022-10-19T09:12:16.605Z,11.99
2022-10-19T09:15:01.026Z,12.32
2022-10-19T09:17:30.931Z,12.79
2022-10-19T09:20:10.197Z,13.19
2022-10-19T09:22:37.524Z,13.48
2022-10-19T09:25:14.406Z,13.61
2022-10-19T09:27:45.410Z,13.23
2022-10-19T09:30:23.059Z,13.02
2022-10-19T09:32:58.707Z,13.05
2022-10-19T09:35:43.127Z,13.25
2022-10-19T09:38:14.384Z,13.42
2022-10-19T09:40:40.953Z,13.81
2022-10-19T09:43:20.599Z,14.16
2022-10-19T09:45:57.601Z,14.41
2022-10-19T09:48:41.877Z,14.19
2022-10-19T09:51:14.301Z,14.49
2022-10-19T09:53:50.034Z,14.87
2022-10-19T09:56:28.013Z,14.84
2022-10-19T09:58:57.357Z,14.96
2022-10-19T10:01:41.486Z,15.02
2022-10-19T10:04:18.831Z,15.21
2022-10-19T10:06:48.260Z,15.01
2022-10-19T10:09:21.995Z,15.13
2022-10-19T10:11:50.974Z,15.09
2022-10-19T10:14:23.334Z,15.19
2022-10-19T10:16:56.378Z,15.33
2022-10-19T10:19:27.584Z,15.42
2022-10-19T10:21:55.738Z,15.35
2022-10-19T10:24:25.110Z,15.33
2022-10-19T10:27:00.646Z,15.75
2022-10-19T10:29:34.191Z,16.01
2022-10-19T10:32:06.488Z,15.84
2022-10-19T10:34:51.304Z,15.89
2022-10-19T10:37:23.491Z,16.12
2022-10-19T10:39:56.691Z,16.15
2022-10-19T10:42:35.147Z,16.35
2022-10-19T10:45:02.831Z,16.18
2022-10-19T10:47:29.886Z,16.09
2022-10-19T10:50:02.964Z,15.86
2022-10-19T10:52:34.569Z,15.99
2022-10-19T10:55:10.421Z,16.14
2022-10-19T10:57:40.630Z,16.37
2022-10-19T11:00:14.085Z,16.21
2022-10-19T11:03:04.760Z,16.43
2022-10-19T11:05:54.445Z,16.56
2022-10-19T11:08:27.517Z,16.99
2022-10-19T11:10:57.246Z,16.94
2022-10-19T11:13:44.539Z,16.73
2022-10-19T11:16:17.920Z,16.88
2022-10-19T11:18:52.265Z,16.88
2022-10-19T11:21:44.294Z,16.94
2022-10-19T11:24:37.826Z,17.09
2022-10-19T11:27:30.100Z,17.29
2022-10-19T11:30:11.616Z,17.02
2022-10-19T11:32:51.915Z,16.90
2022-10-19T11:35:42.865Z,16.50
2022-10-19T11:38:30.567Z,16.42
2022-10-19T11:41:19.049Z,16.25
2022-10-19T11:44:07.075Z,16.52
2022-10-19T11:46:42.705Z,16.79
2022-10-19T11:49:36.546Z,16.62
2022-10-19T11:52:12.045Z,16.20
2022-10-19T11:55:15.640Z,16.55
2022-10-19T11:58:05.240Z,16.64
2022-10-19T12:00:42.484Z,16.80
2022-10-19T12:03:11.690Z,16.63
2022-10-19T12:05:45.463Z,16.49
2022-10-19T12:08:25.564Z,16.41
2022-10-19T12:11:03.943Z,16.60
2022-10-19T12:13:50.393Z,16.86
2022-10-19T12:16:19.150Z,17.17
2022-10-19T12:18:50.230Z,17.49
2022-10-19T12:21:35.984Z,17.76
2022-10-19T12:24:06.357Z,18.10
2022-10-19T12:26:36.926Z,18.13
2022-10-19T12:29:07.277Z,18.16
2022-10-19T12:31:35.656Z,18.23
2022-10-19T12:34:39.127Z,17.76
2022-10-19T12:37:12.502Z,18.10
2022-10-19T12:40:00.478Z,18.30
2022-10-19T12:42:51.380Z,18.30
2022-10-19T12:45:32.974Z,17.88
2022-10-19T12:48:08.290Z,17.71
2022-10-19T12:50:50.082Z,17.82
2022-10-19T12:53:28.017Z,17.49
2022-10-19T12:56:37.052Z,17.93
2022-10-19T12:59:03.696Z,17.73
2022-10-19T13:01:35.966Z,17.64
2022-10-19T13:04:13.892Z,17.52
2022-10-19T13:06:46.064Z,16.90
2022-10-19T13:09:34.273Z,16.88
2022-10-19T13:12:19.587Z,16.97
2022-10-19T13:14:48.842Z,17.42
2022-10-19T13:17:34.700Z,17.83
2022-10-19T13:20:13.578Z,18.13
2022-10-19T13:22:48.119Z,17.87
2022-10-19T13:25:17.485Z,17.65
2022-10-19T13:27:45.821Z,17.81
2022-10-19T13:30:41.869Z,18.04
2022-10-19T13:33:33.490Z,17.99
2022-10-19T13:36:00.078Z,17.72
2022-10-19T13:38:33.414Z,17.51
2022-10-19T13:41:05.908Z,17.68
2022-10-19T13:43:52.709Z,17.61
2022-10-19T13:46:31.022Z,17.46
2022-10-19T13:49:09.620Z,17.52
2022-10-19T13:52:08.276Z,17.82
2022-10-19T13:55:18.698Z,17.59
2022-10-19T13:58:14.143Z,17.01
2022-10-19T14:00:59.154Z,16.62
2022-10-19T14:03:40.909Z,16.17
2022-10-19T14:06:33.624Z,15.87
2022-10-19T14:09:15.188Z,15.68
2022-10-19T14:11:44.294Z,15.38
2022-10-19T14:14:10.716Z,15.17
2022-10-19T14:17:04.417Z,15.06
2022-10-19T14:19:41.000Z,14.92
2022-10-19T14:22:38.642Z,14.96
2022-10-19T14:25:12.987Z,14.87
2022-10-19T14:27:39.567Z,14.84
2022-10-19T14:30:06.771Z,14.86
2022-10-19T14:32:35.016Z,14.85
2022-10-19T14:35:06.639Z,14.91
2022-10-19T14:37:33.524Z,14.97
2022-10-19T14:40:26.506Z,15.05
2022-10-19T14:42:56.965Z,14.99
2022-10-19T14:45:31.607Z,15.01
2022-10-19T14:48:03.692Z,14.92
2022-10-19T14:50:42.334Z,14.94
2022-10-19T14:53:33.501Z,14.93
2022-10-19T14:56:14.010Z,14.85
2022-10-19T14:58:53.014Z,14.85
2022-10-19T15:01:20.388Z,14.73
2022-10-19T15:03:48.243Z,14.73
2022-10-19T15:06:29.487Z,14.65
2022-10-19T15:09:03.833Z,14.68
2022-10-19T15:11:39.226Z,14.67
2022-10-19T15:14:12.663Z,14.59
2022-10-19T15:16:39.048Z,14.65
2022-10-19T15:19:15.593Z,14.58
2022-10-19T15:21:42.300Z,14.52
2022-10-19T15:24:26.898Z,14.49
2022-10-19T15:27:06.437Z,14.53
2022-10-19T15:29:35.013Z,14.49
2022-10-19T15:32:22.812Z,14.51
2022-10-19T15:34:49.442Z,14.42
2022-10-19T15:37:20.096Z,14.44
2022-10-19T15:39:51.830Z,14.32
2022-10-19T15:42:31.590Z,14.36
2022-10-19T15:44:58.145Z,14.29
2022-10-19T15:47:25.325Z,14.26
2022-10-19T15:50:01.441Z,14.23
2022-10-19T15:52:39.187Z,14.09
2022-10-19T15:55:06.344Z,14.05
2022-10-19T15:57:38.337Z,14.00
2022-10-19T16:00:16.540Z,13.97
2022-10-19T16:02:43.395Z,13.96
2022-10-19T16:05:12.436Z,13.91
2022-10-19T16:07:40.946Z,13.88
2022-10-19T16:10:13.262Z,13.81
2022-10-19T16:12:39.738Z,13.82
2022-10-19T16:15:06.733Z,13.77
2022-10-19T16:17:33.509Z,13.71
2022-10-19T16:20:00.185Z,13.68
2022-10-19T16:22:27.499Z,13.64
2022-10-19T16:24:54.009Z,13.60
2022-10-19T16:27:21.506Z,13.58
2022-10-19T16:29:48.000Z,13.58
2022-10-19T16:32:14.618Z,13.57
2022-10-19T16:34:41.439Z,13.56
2022-10-19T16:37:08.596Z,13.46
2022-10-19T16:39:35.353Z,13.33
2022-10-19T16:42:01.814Z,13.26
2022-10-19T16:44:28.314Z,13.20
2022-10-19T16:46:56.816Z,13.14
2022-10-19T16:49:23.350Z,13.15
2022-10-19T16:51:54.684Z,13.01
2022-10-19T16:54:24.007Z,12.95
2022-10-19T16:56:50.538Z,13.01
2022-10-19T16:59:18.494Z,12.98
2022-10-19T17:01:46.400Z,12.86
2022-10-19T17:04:14.748Z,12.86
2022-10-19T17:06:41.982Z,12.85
2022-10-19T17:09:40.663Z,12.82
2022-10-19T17:11:55.232Z,12.77
2022-10-19T17:14:21.726Z,12.73
2022-10-19T17:16:48.358Z,12.70
2022-10-19T17:19:15.677Z,12.67
2022-10-19T17:21:42.502Z,12.67
2022-10-19T17:24:21.054Z,12.65
2022-10-19T17:26:52.006Z,12.64
2022-10-19T17:29:20.714Z,12.62
2022-10-19T17:31:47.270Z,12.63
2022-10-19T17:34:14.350Z,12.55
2022-10-19T17:36:46.036Z,12.52
2022-10-19T17:39:18.753Z,12.45
2022-10-19T17:41:47.110Z,12.41
2022-10-19T17:44:14.533Z,12.34
2022-10-19T17:46:41.294Z,12.39
2022-10-19T17:49:08.120Z,12.32
2022-10-19T17:51:35.928Z,12.28
2022-10-19T17:54:09.072Z,12.27
2022-10-19T17:56:37.194Z,12.26
2022-10-19T17:59:04.233Z,12.26
2022-10-19T18:01:31.221Z,12.22
2022-10-19T18:03:57.740Z,12.17
2022-10-19T18:06:26.791Z,12.22
2022-10-19T18:08:55.646Z,12.16
2022-10-19T18:11:27.562Z,12.20
2022-10-19T18:13:56.757Z,12.16
2022-10-19T18:16:29.332Z,12.20
2022-10-19T18:18:57.816Z,12.14
2022-10-19T18:21:30.533Z,12.17
2022-10-19T18:24:00.315Z,12.17
2022-10-19T18:26:29.445Z,12.16
2022-10-19T18:28:57.358Z,12.11
2022-10-19T18:31:29.130Z,12.10
2022-10-19T18:34:00.927Z,12.13
2022-10-19T18:36:28.233Z,12.19
2022-10-19T18:38:57.441Z,12.18
2022-10-19T18:41:24.327Z,12.09
2022-10-19T18:43:55.792Z,12.14
2022-10-19T18:46:23.841Z,12.09
2022-10-19T18:48:50.348Z,12.02
2022-10-19T18:51:18.709Z,12.04
2022-10-19T18:53:46.943Z,12.07
2022-10-19T18:56:15.584Z,12.15
2022-10-19T18:58:42.743Z,12.09
2022-10-19T19:01:18.072Z,12.06
2022-10-19T19:03:47.309Z,12.09
2022-10-19T19:06:18.933Z,12.09
2022-10-19T19:08:48.197Z,12.03
2022-10-19T19:11:18.037Z,12.07
2022-10-19T19:13:52.887Z,12.04
2022-10-19T19:16:19.955Z,12.06
2022-10-19T19:18:46.896Z,11.98
2022-10-19T19:21:15.353Z,12.00
2022-10-19T19:23:41.968Z,11.98
2022-10-19T19:26:09.442Z,12.02
2022-10-19T19:28:39.223Z,11.98
2022-10-19T19:31:09.619Z,11.91
2022-10-19T19:33:36.608Z,11.87
2022-10-19T19:36:08.025Z,11.89
2022-10-19T19:38:38.197Z,11.84
2022-10-19T19:41:07.040Z,11.89
2022-10-19T19:43:37.046Z,11.87
2022-10-19T19:46:08.853Z,11.81
2022-10-19T19:48:37.172Z,11.81
2022-10-19T19:51:03.783Z,11.77
2022-10-19T19:53:30.731Z,11.76
2022-10-19T19:55:57.335Z,11.76
2022-10-19T19:58:23.807Z,11.71
2022-10-19T20:00:50.215Z,11.73
2022-10-19T20:03:17.150Z,11.78
2022-10-19T20:05:43.642Z,11.82
2022-10-19T20:08:11.264Z,11.85
2022-10-19T20:10:39.651Z,11.85
2022-10-19T20:13:06.368Z,11.87
2022-10-19T20:15:37.337Z,11.88
2022-10-19T20:18:03.859Z,11.85
2022-10-19T20:20:30.331Z,11.81
2022-10-19T20:22:56.960Z,11.85
2022-10-19T20:25:23.417Z,11.86
2022-10-19T20:27:49.963Z,11.88
2022-10-19T20:30:16.484Z,11.88
2022-10-19T20:32:42.920Z,11.85
2022-10-19T20:35:10.638Z,11.80
2022-10-19T20:37:37.171Z,11.78
2022-10-19T20:40:12.970Z,11.76
2022-10-19T20:42:40.423Z,11.76
2022-10-19T20:45:07.371Z,11.75
2022-10-19T20:47:36.890Z,11.75
2022-10-19T20:52:35.682Z,11.76
2022-10-19T20:55:02.367Z,11.74
2022-10-19T20:57:29.018Z,11.65
2022-10-19T20:59:55.486Z,11.69
2022-10-19T21:02:22.061Z,11.74
2022-10-19T21:04:48.570Z,11.69
2022-10-19T21:07:15.081Z,11.70
2022-10-19T21:09:41.529Z,11.65
2022-10-19T21:12:08.006Z,11.69
2022-10-19T21:14:34.970Z,11.70
2022-10-19T21:17:01.599Z,11.67
2022-10-19T21:19:29.466Z,11.65
2022-10-19T21:22:02.002Z,11.62
2022-10-19T21:24:32.707Z,11.70
2022-10-19T21:27:05.130Z,11.69
2022-10-19T21:29:31.693Z,11.68
2022-10-19T21:31:58.349Z,11.71
2022-10-19T21:34:27.197Z,11.70
2022-10-19T21:36:54.338Z,11.70
2022-10-19T21:39:21.444Z,11.64
2022-10-19T21:41:49.036Z,11.69
2022-10-19T21:44:17.919Z,11.71
2022-10-19T21:46:44.763Z,11.69
2022-10-19T21:49:14.567Z,11.60
2022-10-19T21:51:54.830Z,11.63
2022-10-19T21:54:27.312Z,11.60
2022-10-19T21:56:55.932Z,11.60
2022-10-19T21:59:22.495Z,11.58
2022-10-19T22:01:49.056Z,11.51
2022-10-19T22:04:17.040Z,11.52
2022-10-19T22:06:43.995Z,11.52
2022-10-19T22:09:15.974Z,11.40
2022-10-19T22:11:42.932Z,11.38
2022-10-19T22:14:11.489Z,11.41
2022-10-19T22:16:39.509Z,11.38
2022-10-19T22:19:06.309Z,11.33
2022-10-19T22:21:34.595Z,11.35
2022-10-19T22:24:04.145Z,11.36
2022-10-19T22:26:39.361Z,11.37
2022-10-19T22:29:07.357Z,11.34
2022-10-19T22:31:35.886Z,11.36
2022-10-19T22:34:06.339Z,11.31
2022-10-19T22:36:32.862Z,11.26
2022-10-19T22:38:59.914Z,11.31
2022-10-19T22:42:22.702Z,11.30
2022-10-19T22:44:49.164Z,11.27
2022-10-19T22:47:15.694Z,11.26
2022-10-19T22:49:42.297Z,11.22
2022-10-19T22:52:08.779Z,11.15
2022-10-19T22:54:35.260Z,11.14
2022-10-19T22:57:02.173Z,11.16
2022-10-19T22:59:28.711Z,11.08
2022-10-19T23:01:55.348Z,11.09
2022-10-19T23:04:21.874Z,11.15
2022-10-19T23:06:48.551Z,11.11
2022-10-19T23:09:15.002Z,11.10
2022-10-19T23:11:41.694Z,11.09
2022-10-19T23:14:08.150Z,11.07
2022-10-19T23:16:34.585Z,11.08
2022-10-19T23:19:01.205Z,11.05
2022-10-19T23:21:27.652Z,11.06
2022-10-19T23:23:54.115Z,11.03
2022-10-19T23:26:21.209Z,11.06
2022-10-19T23:28:49.443Z,11.07
2022-10-19T23:31:18.582Z,11.11
2022-10-19T23:33:45.974Z,11.15
2022-10-19T23:36:18.533Z,11.16
2022-10-19T23:38:48.297Z,11.11
2022-10-19T23:41:15.500Z,11.11
2022-10-19T23:43:41.981Z,11.14
2022-10-19T23:46:09.042Z,11.17
2022-10-19T23:48:36.230Z,11.17
2022-10-19T23:51:08.695Z,11.13
2022-10-19T23:53:40.024Z,11.08
2022-10-19T23:56:11.941Z,11.13
2022-10-19T23:58:38.468Z,11.15
